sensor_id;sensor_type;location;lat;lon;timestamp;pressure;altitude;pressure_sealevel;temperature;humidity
66547;BME280;53400;50.364;14.874;2023-05-01T00:01:39;99034.69;;;7.26;71.73
66547;BME280;53400;50.364;14.874;2023-05-01T00:04:05;99036.56;;;7.19;72.44
66547;BME280;53400;50.364;14.874;2023-05-01T00:06:31;99037.22;;;7.07;73.28
66547;BME280;53400;50.364;14.874;2023-05-01T00:08:57;99032.16;;;6.93;73.84
66547;BME280;53400;50.364;14.874;2023-05-01T00:11:23;99041.19;;;6.92;73.22
66547;BME280;53400;50.364;14.874;2023-05-01T00:13:50;99039.91;;;7.07;72.66
66547;BME280;53400;50.364;14.874;2023-05-01T00:16:17;99028.63;;;7.05;73.26
66547;BME280;53400;50.364;14.874;2023-05-01T00:18:44;99029.06;;;7.02;73.18
66547;BME280;53400;50.364;14.874;2023-05-01T00:21:10;99033.25;;;6.85;73.25
66547;BME280;53400;50.364;14.874;2023-05-01T00:23:37;99025.19;;;6.98;74.00
66547;BME280;53400;50.364;14.874;2023-05-01T00:26:06;99023.56;;;6.90;72.86
66547;BME280;53400;50.364;14.874;2023-05-01T00:28:32;99026.94;;;6.73;73.71
66547;BME280;53400;50.364;14.874;2023-05-01T00:30:58;99027.22;;;6.96;72.90
66547;BME280;53400;50.364;14.874;2023-05-01T00:33:25;99021.16;;;6.82;72.94
66547;BME280;53400;50.364;14.874;2023-05-01T00:35:51;99015.28;;;6.67;73.92
66547;BME280;53400;50.364;14.874;2023-05-01T00:38:17;99012.84;;;6.59;75.18
66547;BME280;53400;50.364;14.874;2023-05-01T00:40:44;99017.28;;;6.72;73.71
66547;BME280;53400;50.364;14.874;2023-05-01T00:43:10;99021.38;;;6.74;73.39
66547;BME280;53400;50.364;14.874;2023-05-01T00:45:37;99017.41;;;6.97;72.90
66547;BME280;53400;50.364;14.874;2023-05-01T00:48:03;99012.06;;;7.03;72.53
66547;BME280;53400;50.364;14.874;2023-05-01T00:50:32;99013.44;;;6.68;73.06
66547;BME280;53400;50.364;14.874;2023-05-01T00:52:58;99004.09;;;6.97;73.24
66547;BME280;53400;50.364;14.874;2023-05-01T00:55:25;98995.63;;;7.13;72.23
66547;BME280;53400;50.364;14.874;2023-05-01T00:57:51;99001.88;;;6.87;73.25
66547;BME280;53400;50.364;14.874;2023-05-01T01:00:19;99003.38;;;6.76;73.82
66547;BME280;53400;50.364;14.874;2023-05-01T01:02:47;99000.75;;;6.63;74.46
66547;BME280;53400;50.364;14.874;2023-05-01T01:05:14;98997.84;;;6.71;74.79
66547;BME280;53400;50.364;14.874;2023-05-01T01:07:47;98993.00;;;6.48;75.24
66547;BME280;53400;50.364;14.874;2023-05-01T01:10:21;98996.31;;;6.37;75.75
66547;BME280;53400;50.364;14.874;2023-05-01T01:13:00;98993.06;;;6.28;76.03
66547;BME280;53400;50.364;14.874;2023-05-01T01:15:31;98993.50;;;6.18;76.67
66547;BME280;53400;50.364;14.874;2023-05-01T01:18:06;98994.94;;;6.01;76.50
66547;BME280;53400;50.364;14.874;2023-05-01T01:20:37;98993.72;;;5.97;77.15
66547;BME280;53400;50.364;14.874;2023-05-01T01:23:32;99003.69;;;5.75;77.97
66547;BME280;53400;50.364;14.874;2023-05-01T01:26:10;99000.84;;;5.77;78.14
66547;BME280;53400;50.364;14.874;2023-05-01T01:28:54;98990.00;;;5.71;79.07
66547;BME280;53400;50.364;14.874;2023-05-01T01:31:31;98990.63;;;5.53;79.51
66547;BME280;53400;50.364;14.874;2023-05-01T01:34:07;98985.72;;;5.50;79.16
66547;BME280;53400;50.364;14.874;2023-05-01T01:36:46;98986.31;;;5.66;78.81
66547;BME280;53400;50.364;14.874;2023-05-01T01:39:23;98990.03;;;5.58;79.05
66547;BME280;53400;50.364;14.874;2023-05-01T01:41:52;98982.63;;;5.53;79.30
66547;BME280;53400;50.364;14.874;2023-05-01T01:44:24;98985.72;;;5.50;79.49
66547;BME280;53400;50.364;14.874;2023-05-01T01:46:53;98983.66;;;5.52;79.35
66547;BME280;53400;50.364;14.874;2023-05-01T01:49:22;98980.38;;;5.44;77.92
66547;BME280;53400;50.364;14.874;2023-05-01T01:51:51;98975.69;;;5.52;77.62
66547;BME280;53400;50.364;14.874;2023-05-01T01:54:21;98980.81;;;5.67;78.52
66547;BME280;53400;50.364;14.874;2023-05-01T01:56:49;98975.91;;;5.84;78.21
66547;BME280;53400;50.364;14.874;2023-05-01T01:59:17;98972.22;;;5.52;78.96
66547;BME280;53400;50.364;14.874;2023-05-01T02:01:46;98972.38;;;5.17;78.86
66547;BME280;53400;50.364;14.874;2023-05-01T02:04:14;98984.50;;;5.46;77.88
66547;BME280;53400;50.364;14.874;2023-05-01T02:06:43;98979.59;;;5.63;78.69
66547;BME280;53400;50.364;14.874;2023-05-01T02:09:11;98975.50;;;5.61;78.04
66547;BME280;53400;50.364;14.874;2023-05-01T02:11:39;98976.72;;;5.65;77.82
66547;BME280;53400;50.364;14.874;2023-05-01T02:14:06;98976.50;;;5.60;77.32
66547;BME280;53400;50.364;14.874;2023-05-01T02:16:34;98974.47;;;5.62;76.34
66547;BME280;53400;50.364;14.874;2023-05-01T02:19:03;98965.06;;;5.46;78.53
66547;BME280;53400;50.364;14.874;2023-05-01T02:21:30;98967.28;;;5.22;78.78
66547;BME280;53400;50.364;14.874;2023-05-01T02:24:00;98956.25;;;5.12;79.71
66547;BME280;53400;50.364;14.874;2023-05-01T02:26:28;98952.72;;;4.98;80.15
66547;BME280;53400;50.364;14.874;2023-05-01T02:28:55;98958.09;;;5.12;80.80
66547;BME280;53400;50.364;14.874;2023-05-01T02:31:21;98955.25;;;5.26;79.43
66547;BME280;53400;50.364;14.874;2023-05-01T02:33:47;98950.75;;;5.27;79.18
66547;BME280;53400;50.364;14.874;2023-05-01T02:36:13;98950.53;;;5.15;80.24
66547;BME280;53400;50.364;14.874;2023-05-01T02:38:39;98944.81;;;5.12;80.67
66547;BME280;53400;50.364;14.874;2023-05-01T02:41:08;98951.34;;;5.16;80.47
66547;BME280;53400;50.364;14.874;2023-05-01T02:43:36;98948.47;;;5.04;80.45
66547;BME280;53400;50.364;14.874;2023-05-01T02:46:04;98940.09;;;4.94;80.86
66547;BME280;53400;50.364;14.874;2023-05-01T02:48:32;98950.75;;;4.52;82.09
66547;BME280;53400;50.364;14.874;2023-05-01T02:50:59;98945.97;;;4.82;81.22
66547;BME280;53400;50.364;14.874;2023-05-01T02:53:26;98952.13;;;4.96;81.85
66547;BME280;53400;50.364;14.874;2023-05-01T02:55:52;98941.53;;;5.10;80.73
66547;BME280;53400;50.364;14.874;2023-05-01T02:58:19;98942.97;;;5.19;80.41
66547;BME280;53400;50.364;14.874;2023-05-01T03:00:47;98945.81;;;5.17;80.43
66547;BME280;53400;50.364;14.874;2023-05-01T03:03:14;98939.31;;;5.26;79.38
66547;BME280;53400;50.364;14.874;2023-05-01T03:05:41;98940.72;;;5.16;80.06
66547;BME280;53400;50.364;14.874;2023-05-01T03:08:07;98933.53;;;4.90;80.56
66547;BME280;53400;50.364;14.874;2023-05-01T03:10:33;98945.66;;;5.32;80.27
66547;BME280;53400;50.364;14.874;2023-05-01T03:12:59;98940.78;;;5.36;78.64
66547;BME280;53400;50.364;14.874;2023-05-01T03:15:27;98937.06;;;5.43;78.02
66547;BME280;53400;50.364;14.874;2023-05-01T03:17:52;98939.94;;;5.48;76.73
66547;BME280;53400;50.364;14.874;2023-05-01T03:20:18;98938.13;;;5.42;77.10
66547;BME280;53400;50.364;14.874;2023-05-01T03:22:44;98940.75;;;5.42;78.46
66547;BME280;53400;50.364;14.874;2023-05-01T03:25:10;98946.44;;;5.26;78.11
66547;BME280;53400;50.364;14.874;2023-05-01T03:27:36;98947.06;;;5.21;79.25
66547;BME280;53400;50.364;14.874;2023-05-01T03:30:02;98938.66;;;5.04;79.31
66547;BME280;53400;50.364;14.874;2023-05-01T03:32:30;98945.72;;;4.77;82.48
66547;BME280;53400;50.364;14.874;2023-05-01T03:34:57;98937.38;;;4.80;80.96
66547;BME280;53400;50.364;14.874;2023-05-01T03:37:23;98941.88;;;4.87;81.03
66547;BME280;53400;50.364;14.874;2023-05-01T03:39:49;98932.34;;;5.05;80.73
66547;BME280;53400;50.364;14.874;2023-05-01T03:42:16;98929.88;;;5.11;80.53
66547;BME280;53400;50.364;14.874;2023-05-01T03:44:42;98932.34;;;5.12;80.13
66547;BME280;53400;50.364;14.874;2023-05-01T03:47:08;98929.25;;;4.95;80.21
66547;BME280;53400;50.364;14.874;2023-05-01T03:49:36;98934.56;;;5.02;79.62
66547;BME280;53400;50.364;14.874;2023-05-01T03:52:02;98931.91;;;4.89;80.77
66547;BME280;53400;50.364;14.874;2023-05-01T03:54:28;98924.16;;;4.87;81.48
66547;BME280;53400;50.364;14.874;2023-05-01T03:56:54;98929.13;;;5.23;80.72
66547;BME280;53400;50.364;14.874;2023-05-01T03:59:20;98928.28;;;5.23;79.94
66547;BME280;53400;50.364;14.874;2023-05-01T04:01:46;98924.81;;;5.16;80.55
66547;BME280;53400;50.364;14.874;2023-05-01T04:04:12;98919.50;;;5.29;81.10
66547;BME280;53400;50.364;14.874;2023-05-01T04:06:40;98914.63;;;5.39;79.98
66547;BME280;53400;50.364;14.874;2023-05-01T04:09:06;98911.94;;;5.46;80.34
66547;BME280;53400;50.364;14.874;2023-05-01T04:11:32;98916.03;;;5.62;80.10
66547;BME280;53400;50.364;14.874;2023-05-01T04:13:58;98909.66;;;6.03;79.69
66547;BME280;53400;50.364;14.874;2023-05-01T04:16:24;98918.94;;;6.38;77.30
66547;BME280;53400;50.364;14.874;2023-05-01T04:18:50;98923.59;;;6.56;75.87
66547;BME280;53400;50.364;14.874;2023-05-01T04:21:17;98923.34;;;7.03;74.62
66547;BME280;53400;50.364;14.874;2023-05-01T04:23:45;98923.97;;;7.37;73.91
66547;BME280;53400;50.364;14.874;2023-05-01T04:26:11;98926.44;;;7.81;73.68
66547;BME280;53400;50.364;14.874;2023-05-01T04:28:37;98923.06;;;8.11;70.96
66547;BME280;53400;50.364;14.874;2023-05-01T04:31:03;98925.91;;;8.35;70.03
66547;BME280;53400;50.364;14.874;2023-05-01T04:33:29;98925.03;;;8.89;69.50
66547;BME280;53400;50.364;14.874;2023-05-01T04:35:55;98927.03;;;9.36;67.77
66547;BME280;53400;50.364;14.874;2023-05-01T04:38:24;98922.16;;;9.45;66.65
66547;BME280;53400;50.364;14.874;2023-05-01T04:40:51;98921.34;;;9.32;65.69
66547;BME280;53400;50.364;14.874;2023-05-01T04:43:17;98918.88;;;9.31;66.25
66547;BME280;53400;50.364;14.874;2023-05-01T04:45:43;98920.09;;;9.05;64.58
66547;BME280;53400;50.364;14.874;2023-05-01T04:48:09;98925.84;;;8.90;65.43
66547;BME280;53400;50.364;14.874;2023-05-01T04:50:35;98923.28;;;9.13;65.52
66547;BME280;53400;50.364;14.874;2023-05-01T04:53:02;98924.78;;;9.21;65.88
66547;BME280;53400;50.364;14.874;2023-05-01T04:55:28;98924.63;;;9.04;66.77
66547;BME280;53400;50.364;14.874;2023-05-01T04:57:58;98926.41;;;8.80;66.83
66547;BME280;53400;50.364;14.874;2023-05-01T05:00:24;98915.44;;;10.13;64.31
66547;BME280;53400;50.364;14.874;2023-05-01T05:02:52;98925.88;;;10.90;61.77
66547;BME280;53400;50.364;14.874;2023-05-01T05:05:18;98921.09;;;10.51;61.40
66547;BME280;53400;50.364;14.874;2023-05-01T05:07:44;98910.16;;;10.53;61.01
66547;BME280;53400;50.364;14.874;2023-05-01T05:10:20;98922.38;;;10.25;61.12
66547;BME280;53400;50.364;14.874;2023-05-01T05:12:46;98918.13;;;9.54;64.13
66547;BME280;53400;50.364;14.874;2023-05-01T05:15:13;98916.59;;;10.81;60.95
66547;BME280;53400;50.364;14.874;2023-05-01T05:17:39;98920.44;;;10.21;62.30
66547;BME280;53400;50.364;14.874;2023-05-01T05:20:07;98918.41;;;10.51;60.97
66547;BME280;53400;50.364;14.874;2023-05-01T05:22:35;98913.91;;;10.40;62.10
66547;BME280;53400;50.364;14.874;2023-05-01T05:25:02;98913.47;;;9.61;65.02
66547;BME280;53400;50.364;14.874;2023-05-01T05:27:29;98914.88;;;10.74;62.92
66547;BME280;53400;50.364;14.874;2023-05-01T05:29:57;98912.41;;;10.44;61.00
66547;BME280;53400;50.364;14.874;2023-05-01T05:32:24;98918.63;;;10.62;64.65
66547;BME280;53400;50.364;14.874;2023-05-01T05:34:50;98914.16;;;10.27;63.34
66547;BME280;53400;50.364;14.874;2023-05-01T05:37:16;98912.53;;;11.40;62.18
66547;BME280;53400;50.364;14.874;2023-05-01T05:39:42;98905.00;;;10.63;63.40
66547;BME280;53400;50.364;14.874;2023-05-01T05:42:10;98911.31;;;10.86;63.24
66547;BME280;53400;50.364;14.874;2023-05-01T05:44:36;98918.88;;;10.89;65.09
66547;BME280;53400;50.364;14.874;2023-05-01T05:47:02;98912.16;;;10.22;67.95
66547;BME280;53400;50.364;14.874;2023-05-01T05:49:29;98907.41;;;10.36;65.93
66547;BME280;53400;50.364;14.874;2023-05-01T05:51:55;98913.22;;;10.09;67.27
66547;BME280;53400;50.364;14.874;2023-05-01T05:54:21;98909.66;;;9.69;65.35
66547;BME280;53400;50.364;14.874;2023-05-01T05:56:47;98914.50;;;10.19;64.93
66547;BME280;53400;50.364;14.874;2023-05-01T05:59:13;98914.38;;;9.43;67.02
66547;BME280;53400;50.364;14.874;2023-05-01T06:01:39;98910.53;;;10.45;64.19
66547;BME280;53400;50.364;14.874;2023-05-01T06:04:07;98905.66;;;10.30;63.71
66547;BME280;53400;50.364;14.874;2023-05-01T06:06:34;98912.81;;;11.10;62.31
66547;BME280;53400;50.364;14.874;2023-05-01T06:09:00;98908.25;;;10.94;60.69
66547;BME280;53400;50.364;14.874;2023-05-01T06:11:26;98921.31;;;11.53;61.03
66547;BME280;53400;50.364;14.874;2023-05-01T06:13:52;98919.09;;;12.17;58.58
66547;BME280;53400;50.364;14.874;2023-05-01T06:16:18;98922.06;;;12.81;56.32
66547;BME280;53400;50.364;14.874;2023-05-01T06:18:44;98925.81;;;12.58;55.77
66547;BME280;53400;50.364;14.874;2023-05-01T06:21:10;98912.66;;;12.62;55.88
66547;BME280;53400;50.364;14.874;2023-05-01T06:23:38;98921.22;;;12.81;53.88
66547;BME280;53400;50.364;14.874;2023-05-01T06:26:04;98914.47;;;13.60;52.92
66547;BME280;53400;50.364;14.874;2023-05-01T06:28:30;98917.25;;;13.70;49.53
66547;BME280;53400;50.364;14.874;2023-05-01T06:30:57;98920.56;;;13.82;49.95
66547;BME280;53400;50.364;14.874;2023-05-01T06:33:23;98921.84;;;12.88;50.19
66547;BME280;53400;50.364;14.874;2023-05-01T06:35:49;98923.47;;;12.23;51.81
66547;BME280;53400;50.364;14.874;2023-05-01T06:38:15;98911.47;;;12.97;51.88
66547;BME280;53400;50.364;14.874;2023-05-01T06:40:42;98911.97;;;12.94;50.61
66547;BME280;53400;50.364;14.874;2023-05-01T06:43:11;98914.38;;;13.22;49.63
66547;BME280;53400;50.364;14.874;2023-05-01T06:45:37;98911.63;;;12.90;51.16
66547;BME280;53400;50.364;14.874;2023-05-01T06:48:05;98912.56;;;13.60;50.16
66547;BME280;53400;50.364;14.874;2023-05-01T06:50:32;98895.38;;;13.61;49.06
66547;BME280;53400;50.364;14.874;2023-05-01T06:52:57;98895.09;;;14.00;48.87
66547;BME280;53400;50.364;14.874;2023-05-01T06:55:25;98896.53;;;13.11;49.21
66547;BME280;53400;50.364;14.874;2023-05-01T06:57:53;98893.53;;;12.80;50.52
66547;BME280;53400;50.364;14.874;2023-05-01T07:00:19;98889.97;;;13.02;49.31
66547;BME280;53400;50.364;14.874;2023-05-01T07:02:45;98877.19;;;12.16;52.55
66547;BME280;53400;50.364;14.874;2023-05-01T07:05:12;98884.38;;;13.03;51.61
66547;BME280;53400;50.364;14.874;2023-05-01T07:07:38;98881.91;;;13.02;50.14
66547;BME280;53400;50.364;14.874;2023-05-01T07:10:04;98881.06;;;12.69;51.46
66547;BME280;53400;50.364;14.874;2023-05-01T07:12:30;98882.72;;;12.48;51.03
66547;BME280;53400;50.364;14.874;2023-05-01T07:14:58;98871.91;;;12.21;50.93
66547;BME280;53400;50.364;14.874;2023-05-01T07:17:24;98879.38;;;12.41;51.61
66547;BME280;53400;50.364;14.874;2023-05-01T07:19:52;98874.81;;;12.63;50.96
66547;BME280;53400;50.364;14.874;2023-05-01T07:22:18;98875.00;;;12.84;51.01
66547;BME280;53400;50.364;14.874;2023-05-01T07:24:47;98870.44;;;12.57;50.61
66547;BME280;53400;50.364;14.874;2023-05-01T07:27:13;98880.22;;;12.91;48.46
66547;BME280;53400;50.364;14.874;2023-05-01T07:29:39;98863.59;;;13.26;51.18
66547;BME280;53400;50.364;14.874;2023-05-01T07:32:07;98859.03;;;12.99;48.19
66547;BME280;53400;50.364;14.874;2023-05-01T07:34:34;98861.03;;;13.09;50.71
66547;BME280;53400;50.364;14.874;2023-05-01T07:37:00;98866.16;;;12.83;49.52
66547;BME280;53400;50.364;14.874;2023-05-01T07:39:27;98856.56;;;12.93;50.19
66547;BME280;53400;50.364;14.874;2023-05-01T07:41:52;98857.94;;;12.68;50.41
66547;BME280;53400;50.364;14.874;2023-05-01T07:44:19;98851.94;;;12.61;50.22
66547;BME280;53400;50.364;14.874;2023-05-01T07:46:45;98853.78;;;13.42;48.60
66547;BME280;53400;50.364;14.874;2023-05-01T07:49:13;98853.94;;;13.62;50.11
66547;BME280;53400;50.364;14.874;2023-05-01T07:51:39;98840.41;;;13.99;48.73
66547;BME280;53400;50.364;14.874;2023-05-01T07:54:14;98843.50;;;13.71;49.28
66547;BME280;53400;50.364;14.874;2023-05-01T07:56:42;98837.69;;;13.47;47.26
66547;BME280;53400;50.364;14.874;2023-05-01T07:59:11;98830.41;;;13.47;48.35
66547;BME280;53400;50.364;14.874;2023-05-01T08:01:37;98829.72;;;13.25;47.50
66547;BME280;53400;50.364;14.874;2023-05-01T08:04:04;98834.22;;;13.19;49.73
66547;BME280;53400;50.364;14.874;2023-05-01T08:06:33;98825.31;;;12.86;49.08
66547;BME280;53400;50.364;14.874;2023-05-01T08:08:59;98825.19;;;13.30;47.67
66547;BME280;53400;50.364;14.874;2023-05-01T08:11:25;98826.41;;;13.18;47.66
66547;BME280;53400;50.364;14.874;2023-05-01T08:13:52;98829.56;;;13.09;48.57
66547;BME280;53400;50.364;14.874;2023-05-01T08:16:18;98824.94;;;13.05;48.28
66547;BME280;53400;50.364;14.874;2023-05-01T08:18:44;98809.16;;;13.93;47.08
66547;BME280;53400;50.364;14.874;2023-05-01T08:21:11;98820.97;;;13.87;47.36
66547;BME280;53400;50.364;14.874;2023-05-01T08:23:39;98820.13;;;13.76;45.96
66547;BME280;53400;50.364;14.874;2023-05-01T08:26:05;98815.81;;;13.81;48.51
66547;BME280;53400;50.364;14.874;2023-05-01T08:28:34;98808.69;;;13.59;46.85
66547;BME280;53400;50.364;14.874;2023-05-01T08:31:01;98804.03;;;13.44;45.58
66547;BME280;53400;50.364;14.874;2023-05-01T08:33:29;98811.16;;;13.61;44.37
66547;BME280;53400;50.364;14.874;2023-05-01T08:35:56;98800.31;;;13.50;45.48
66547;BME280;53400;50.364;14.874;2023-05-01T08:38:22;98810.72;;;13.79;44.55
66547;BME280;53400;50.364;14.874;2023-05-01T08:40:52;98801.34;;;13.92;43.92
66547;BME280;53400;50.364;14.874;2023-05-01T08:43:19;98805.66;;;13.93;45.43
66547;BME280;53400;50.364;14.874;2023-05-01T08:45:46;98809.63;;;14.43;44.19
66547;BME280;53400;50.364;14.874;2023-05-01T08:48:15;98810.88;;;14.20;42.60
66547;BME280;53400;50.364;14.874;2023-05-01T08:50:45;98813.25;;;14.79;42.70
66547;BME280;53400;50.364;14.874;2023-05-01T08:53:14;98807.84;;;15.05;43.64
66547;BME280;53400;50.364;14.874;2023-05-01T08:55:43;98790.28;;;14.61;43.11
66547;BME280;53400;50.364;14.874;2023-05-01T08:58:12;98782.63;;;14.33;43.97
66547;BME280;53400;50.364;14.874;2023-05-01T09:00:38;98789.50;;;13.93;45.07
66547;BME280;53400;50.364;14.874;2023-05-01T09:03:06;98784.13;;;13.93;44.70
66547;BME280;53400;50.364;14.874;2023-05-01T09:05:33;98787.44;;;14.15;46.54
66547;BME280;53400;50.364;14.874;2023-05-01T09:08:00;98783.72;;;13.69;44.58
66547;BME280;53400;50.364;14.874;2023-05-01T09:10:26;98769.50;;;13.73;45.49
66547;BME280;53400;50.364;14.874;2023-05-01T09:12:55;98772.13;;;13.63;46.18
66547;BME280;53400;50.364;14.874;2023-05-01T09:15:24;98768.63;;;14.26;45.01
66547;BME280;53400;50.364;14.874;2023-05-01T09:17:52;98767.22;;;14.08;44.13
66547;BME280;53400;50.364;14.874;2023-05-01T09:20:18;98773.97;;;14.10;43.49
66547;BME280;53400;50.364;14.874;2023-05-01T09:22:45;98769.41;;;14.26;43.35
66547;BME280;53400;50.364;14.874;2023-05-01T09:25:11;98759.78;;;13.72;44.66
66547;BME280;53400;50.364;14.874;2023-05-01T09:27:37;98765.13;;;14.30;44.67
66547;BME280;53400;50.364;14.874;2023-05-01T09:30:04;98753.91;;;14.59;43.24
66547;BME280;53400;50.364;14.874;2023-05-01T09:32:32;98753.56;;;14.40;46.82
66547;BME280;53400;50.364;14.874;2023-05-01T09:35:09;98749.63;;;14.88;44.66
66547;BME280;53400;50.364;14.874;2023-05-01T09:37:36;98746.78;;;14.17;45.94
66547;BME280;53400;50.364;14.874;2023-05-01T09:40:04;98748.28;;;13.82;44.56
66547;BME280;53400;50.364;14.874;2023-05-01T09:42:31;98738.66;;;14.12;45.11
66547;BME280;53400;50.364;14.874;2023-05-01T09:44:57;98748.78;;;14.62;44.16
66547;BME280;53400;50.364;14.874;2023-05-01T09:47:23;98738.53;;;14.64;44.37
66547;BME280;53400;50.364;14.874;2023-05-01T09:49:54;98732.66;;;13.79;43.63
66547;BME280;53400;50.364;14.874;2023-05-01T09:52:21;98729.03;;;14.31;43.61
66547;BME280;53400;50.364;14.874;2023-05-01T09:54:47;98723.72;;;14.98;44.69
66547;BME280;53400;50.364;14.874;2023-05-01T09:57:14;98735.22;;;14.21;42.93
66547;BME280;53400;50.364;14.874;2023-05-01T09:59:40;98720.47;;;14.75;43.18
66547;BME280;53400;50.364;14.874;2023-05-01T10:02:06;98719.59;;;15.46;41.93
66547;BME280;53400;50.364;14.874;2023-05-01T10:04:34;98720.47;;;15.01;42.72
66547;BME280;53400;50.364;14.874;2023-05-01T10:07:12;98712.13;;;14.82;41.50
66547;BME280;53400;50.364;14.874;2023-05-01T10:09:38;98718.44;;;15.63;40.31
66547;BME280;53400;50.364;14.874;2023-05-01T10:12:06;98711.94;;;15.79;40.93
66547;BME280;53400;50.364;14.874;2023-05-01T10:14:31;98714.44;;;15.50;42.38
66547;BME280;53400;50.364;14.874;2023-05-01T10:17:16;98711.56;;;15.16;43.16
66547;BME280;53400;50.364;14.874;2023-05-01T10:19:42;98709.97;;;15.09;41.89
66547;BME280;53400;50.364;14.874;2023-05-01T10:22:08;98705.19;;;15.66;41.63
66547;BME280;53400;50.364;14.874;2023-05-01T10:24:37;98705.72;;;15.83;41.26
66547;BME280;53400;50.364;14.874;2023-05-01T10:27:05;98708.94;;;15.86;41.99
66547;BME280;53400;50.364;14.874;2023-05-01T10:29:33;98698.41;;;15.79;41.83
66547;BME280;53400;50.364;14.874;2023-05-01T10:32:00;98696.44;;;16.44;40.96
66547;BME280;53400;50.364;14.874;2023-05-01T10:34:27;98694.09;;;16.67;40.13
66547;BME280;53400;50.364;14.874;2023-05-01T10:36:56;98688.53;;;16.87;38.46
66547;BME280;53400;50.364;14.874;2023-05-01T10:39:30;98683.38;;;16.91;39.20
66547;BME280;53400;50.364;14.874;2023-05-01T10:42:01;98682.22;;;16.97;40.92
66547;BME280;53400;50.364;14.874;2023-05-01T10:44:31;98685.44;;;17.04;42.85
66547;BME280;53400;50.364;14.874;2023-05-01T10:46:59;98675.34;;;16.46;41.54
66547;BME280;53400;50.364;14.874;2023-05-01T10:50:04;98663.91;;;16.55;40.62
66547;BME280;53400;50.364;14.874;2023-05-01T10:53:17;98663.53;;;17.01;39.95
66547;BME280;53400;50.364;14.874;2023-05-01T10:55:44;98660.88;;;16.95;40.78
66547;BME280;53400;50.364;14.874;2023-05-01T10:58:13;98659.47;;;16.69;39.67
66547;BME280;53400;50.364;14.874;2023-05-01T11:01:30;98656.31;;;16.91;40.83
66547;BME280;53400;50.364;14.874;2023-05-01T11:03:57;98642.59;;;16.53;40.10
66547;BME280;53400;50.364;14.874;2023-05-01T11:06:24;98641.88;;;16.71;40.19
66547;BME280;53400;50.364;14.874;2023-05-01T11:08:50;98642.53;;;16.19;41.29
66547;BME280;53400;50.364;14.874;2023-05-01T11:11:44;98635.41;;;16.67;40.98
66547;BME280;53400;50.364;14.874;2023-05-01T11:14:14;98629.88;;;17.12;39.72
66547;BME280;53400;50.364;14.874;2023-05-01T11:16:41;98624.91;;;17.19;39.82
66547;BME280;53400;50.364;14.874;2023-05-01T11:19:09;98621.38;;;16.94;40.82
66547;BME280;53400;50.364;14.874;2023-05-01T11:21:36;98628.50;;;17.14;40.19
66547;BME280;53400;50.364;14.874;2023-05-01T11:24:04;98621.41;;;17.18;40.97
66547;BME280;53400;50.364;14.874;2023-05-01T11:26:30;98618.94;;;16.35;41.86
66547;BME280;53400;50.364;14.874;2023-05-01T11:28:58;98619.09;;;17.07;41.91
66547;BME280;53400;50.364;14.874;2023-05-01T11:31:27;98608.66;;;17.19;41.40
66547;BME280;53400;50.364;14.874;2023-05-01T11:33:55;98603.19;;;17.00;41.43
66547;BME280;53400;50.364;14.874;2023-05-01T11:36:22;98599.06;;;17.32;41.95
66547;BME280;53400;50.364;14.874;2023-05-01T11:38:48;98595.22;;;17.14;41.67
66547;BME280;53400;50.364;14.874;2023-05-01T11:41:18;98591.09;;;17.40;41.03
66547;BME280;53400;50.364;14.874;2023-05-01T11:43:49;98576.84;;;17.54;40.24
66547;BME280;53400;50.364;14.874;2023-05-01T11:46:22;98580.03;;;17.37;40.01
66547;BME280;53400;50.364;14.874;2023-05-01T11:48:50;98570.63;;;17.10;40.50
66547;BME280;53400;50.364;14.874;2023-05-01T11:51:16;98570.63;;;18.10;40.11
66547;BME280;53400;50.364;14.874;2023-05-01T11:53:42;98565.66;;;18.17;38.97
66547;BME280;53400;50.364;14.874;2023-05-01T11:56:18;98569.81;;;17.53;39.95
66547;BME280;53400;50.364;14.874;2023-05-01T11:58:46;98558.63;;;17.59;40.85
66547;BME280;53400;50.364;14.874;2023-05-01T12:01:11;98550.06;;;17.71;40.80
66547;BME280;53400;50.364;14.874;2023-05-01T12:03:48;98546.91;;;17.64;40.82
66547;BME280;53400;50.364;14.874;2023-05-01T12:06:15;98541.72;;;18.05;41.35
66547;BME280;53400;50.364;14.874;2023-05-01T12:08:42;98547.84;;;18.44;41.99
66547;BME280;53400;50.364;14.874;2023-05-01T12:11:10;98537.78;;;17.60;41.67
66547;BME280;53400;50.364;14.874;2023-05-01T12:13:38;98533.69;;;17.62;41.95
66547;BME280;53400;50.364;14.874;2023-05-01T12:16:04;98535.19;;;18.06;43.60
66547;BME280;53400;50.364;14.874;2023-05-01T12:18:31;98531.63;;;18.25;41.93
66547;BME280;53400;50.364;14.874;2023-05-01T12:20:57;98531.00;;;18.14;41.64
66547;BME280;53400;50.364;14.874;2023-05-01T12:23:32;98533.63;;;17.86;42.46
66547;BME280;53400;50.364;14.874;2023-05-01T12:25:58;98525.63;;;17.57;41.92
66547;BME280;53400;50.364;14.874;2023-05-01T12:28:25;98515.66;;;17.91;43.48
66547;BME280;53400;50.364;14.874;2023-05-01T12:30:52;98518.00;;;18.44;43.73
66547;BME280;53400;50.364;14.874;2023-05-01T12:33:21;98509.69;;;18.40;43.98
66547;BME280;53400;50.364;14.874;2023-05-01T12:35:48;98505.84;;;17.95;42.93
66547;BME280;53400;50.364;14.874;2023-05-01T12:38:16;98495.78;;;17.62;43.82
66547;BME280;53400;50.364;14.874;2023-05-01T12:40:53;98498.84;;;18.07;42.41
66547;BME280;53400;50.364;14.874;2023-05-01T12:43:29;98489.59;;;17.95;43.17
66547;BME280;53400;50.364;14.874;2023-05-01T12:45:56;98486.63;;;18.10;43.54
66547;BME280;53400;50.364;14.874;2023-05-01T12:48:23;98489.81;;;18.45;44.04
66547;BME280;53400;50.364;14.874;2023-05-01T12:50:49;98478.94;;;18.31;43.38
66547;BME280;53400;50.364;14.874;2023-05-01T12:53:20;98474.59;;;18.16;44.58
66547;BME280;53400;50.364;14.874;2023-05-01T12:55:47;98469.41;;;18.33;45.81
66547;BME280;53400;50.364;14.874;2023-05-01T12:58:16;98474.75;;;18.39;44.28
66547;BME280;53400;50.364;14.874;2023-05-01T13:00:43;98458.84;;;18.18;45.05